createdAt,value
2023-03-31T00:02:17.777Z,15.43
2023-03-31T00:07:23.077Z,15.17
2023-03-31T00:12:28.409Z,15.14
2023-03-31T00:17:32.056Z,15.14
2023-03-31T00:22:35.724Z,15.06
2023-03-31T00:27:43.211Z,14.76
2023-03-31T00:32:46.911Z,14.58
2023-03-31T00:37:51.945Z,14.50
2023-03-31T00:42:58.235Z,14.43
2023-03-31T00:48:07.205Z,14.29
2023-03-31T00:53:13.652Z,14.41
2023-03-31T00:58:20.335Z,14.05
2023-03-31T01:03:24.247Z,14.24
2023-03-31T01:08:28.742Z,13.91
2023-03-31T01:13:35.775Z,13.46
2023-03-31T01:18:39.614Z,13.48
2023-03-31T01:24:20.581Z,13.28
2023-03-31T01:29:51.368Z,13.61
2023-03-31T01:35:21.394Z,13.50
2023-03-31T01:40:55.618Z,13.22
2023-03-31T01:46:03.873Z,13.02
2023-03-31T01:51:14.569Z,13.05
2023-03-31T01:56:24.609Z,12.92
2023-03-31T02:01:32.022Z,12.75
2023-03-31T02:06:38.573Z,12.74
2023-03-31T02:11:47.102Z,12.57
2023-03-31T02:16:55.700Z,12.49
2023-03-31T02:21:59.797Z,12.30
2023-03-31T02:27:08.201Z,12.27
2023-03-31T02:32:16.701Z,12.09
2023-03-31T02:37:20.459Z,11.89
2023-03-31T02:42:26.316Z,11.55
2023-03-31T02:47:30.174Z,11.63
2023-03-31T02:52:57.552Z,11.54
2023-03-31T02:58:27.757Z,11.82
2023-03-31T03:03:42.828Z,11.83
2023-03-31T03:09:02.621Z,11.73
2023-03-31T03:14:18.743Z,11.74
2023-03-31T03:19:24.560Z,11.58
2023-03-31T03:24:28.393Z,11.41
2023-03-31T03:29:36.739Z,11.15
2023-03-31T03:34:40.783Z,11.21
2023-03-31T03:39:44.472Z,11.18
2023-03-31T03:44:49.807Z,10.98
2023-03-31T03:49:53.462Z,10.83
2023-03-31T03:54:57.158Z,10.74
2023-03-31T04:00:02.416Z,10.51
2023-03-31T04:05:06.440Z,10.60
2023-03-31T04:10:10.880Z,10.55
2023-03-31T04:15:16.272Z,10.48
2023-03-31T04:20:20.066Z,10.53
2023-03-31T04:25:23.694Z,10.61
2023-03-31T04:30:29.219Z,10.59
2023-03-31T04:35:33.159Z,10.33
2023-03-31T04:40:36.863Z,10.45
2023-03-31T04:45:52.941Z,10.37
2023-03-31T04:51:03.264Z,10.46
2023-03-31T04:56:08.101Z,10.37
2023-03-31T05:01:13.907Z,10.33
2023-03-31T05:06:18.255Z,10.22
2023-03-31T05:11:21.945Z,10.21
2023-03-31T05:16:28.028Z,10.29
2023-03-31T05:21:31.777Z,10.29
2023-03-31T05:26:35.415Z,10.29
2023-03-31T05:31:40.694Z,10.25
2023-03-31T05:36:44.427Z,10.19
2023-03-31T05:41:48.070Z,10.23
2023-03-31T05:46:53.431Z,10.13
2023-03-31T05:51:57.061Z,10.19
2023-03-31T05:57:00.861Z,10.12
2023-03-31T06:02:06.298Z,9.98
2023-03-31T06:07:10.058Z,10.02
2023-03-31T06:12:14.402Z,10.00
2023-03-31T06:17:19.680Z,9.95
2023-03-31T06:22:23.343Z,9.97
2023-03-31T06:27:26.992Z,10.01
2023-03-31T06:32:32.322Z,10.04
2023-03-31T06:37:36.709Z,10.30
2023-03-31T06:42:40.343Z,10.14
2023-03-31T06:47:45.713Z,9.89
2023-03-31T06:52:49.398Z,9.92
2023-03-31T06:57:53.054Z,10.12
2023-03-31T07:02:58.506Z,10.02
2023-03-31T07:08:02.605Z,10.05
2023-03-31T07:13:06.369Z,9.93
2023-03-31T07:18:11.775Z,9.98
2023-03-31T07:23:15.511Z,9.81
2023-03-31T07:28:19.184Z,9.74
2023-03-31T07:33:24.492Z,9.75
2023-03-31T07:38:28.196Z,9.80
2023-03-31T07:43:31.867Z,9.56
2023-03-31T07:48:37.201Z,9.50
2023-03-31T07:53:40.850Z,9.39
2023-03-31T07:58:44.602Z,9.27
2023-03-31T08:03:50.532Z,9.22
2023-03-31T08:08:54.230Z,9.18
2023-03-31T08:13:58.065Z,9.08
2023-03-31T08:19:03.560Z,8.92
2023-03-31T08:24:07.433Z,8.82
2023-03-31T08:29:11.109Z,8.87
2023-03-31T08:34:16.416Z,8.78
2023-03-31T08:39:20.114Z,8.69
2023-03-31T08:44:31.880Z,8.67
2023-03-31T08:49:43.053Z,8.54
2023-03-31T08:54:50.488Z,8.51
2023-03-31T08:59:55.070Z,8.33
2023-03-31T09:05:29.224Z,8.11
2023-03-31T09:10:42.095Z,8.12
2023-03-31T09:15:49.665Z,8.20
2023-03-31T09:20:58.986Z,8.22
2023-03-31T09:26:05.125Z,8.09
2023-03-31T09:31:14.065Z,7.92
2023-03-31T09:36:21.116Z,7.76
2023-03-31T09:41:24.803Z,7.79
2023-03-31T09:46:32.080Z,7.70
2023-03-31T09:51:42.353Z,7.69
2023-03-31T09:56:50.702Z,7.63
2023-03-31T10:01:57.987Z,7.54
2023-03-31T10:07:05.827Z,7.48
2023-03-31T10:12:16.644Z,7.44
2023-03-31T10:17:21.205Z,7.34
2023-03-31T10:22:33.018Z,7.25
2023-03-31T10:27:40.059Z,7.25
2023-03-31T10:32:46.314Z,7.25
2023-03-31T10:37:57.614Z,7.28
2023-03-31T10:43:04.802Z,7.26
2023-03-31T10:48:19.564Z,7.32
2023-03-31T10:53:24.891Z,7.25
2023-03-31T10:58:54.786Z,7.12
2023-03-31T11:04:36.911Z,7.12
2023-03-31T11:09:56.249Z,7.06
2023-03-31T11:15:11.612Z,6.99
2023-03-31T11:20:26.134Z,7.04
2023-03-31T11:25:38.827Z,7.03
2023-03-31T11:30:47.497Z,7.01
2023-03-31T11:36:08.126Z,6.98
2023-03-31T11:41:16.550Z,7.03
2023-03-31T11:46:24.391Z,7.01
2023-03-31T11:51:31.498Z,6.90
2023-03-31T11:56:40.978Z,6.91
2023-03-31T12:01:52.522Z,6.91
2023-03-31T12:07:02.685Z,6.90
2023-03-31T12:12:12.949Z,6.94
2023-03-31T12:17:19.670Z,6.75
2023-03-31T12:22:27.363Z,6.61
2023-03-31T12:27:39.222Z,6.50
2023-03-31T12:32:47.366Z,6.37
2023-03-31T12:38:14.430Z,6.36
2023-03-31T12:43:46.209Z,6.29
2023-03-31T12:49:10.772Z,6.24
2023-03-31T12:54:34.639Z,6.25
2023-03-31T12:59:41.022Z,6.28
2023-03-31T13:04:44.403Z,6.18
2023-03-31T13:09:49.681Z,6.11
2023-03-31T13:14:56.278Z,6.09
2023-03-31T13:20:18.371Z,6.21
2023-03-31T13:25:50.084Z,6.19
2023-03-31T13:31:00.394Z,5.86
2023-03-31T13:36:36.414Z,5.91
2023-03-31T13:41:52.991Z,6.07
2023-03-31T13:47:29.460Z,6.10
2023-03-31T13:52:47.694Z,6.04
2023-03-31T13:58:33.652Z,6.05
2023-03-31T14:03:55.589Z,6.08
2023-03-31T14:09:05.912Z,6.16
2023-03-31T14:14:14.379Z,6.19
2023-03-31T14:19:35.072Z,6.25
2023-03-31T14:24:45.078Z,6.54
2023-03-31T14:29:58.927Z,6.97
2023-03-31T14:35:21.503Z,7.29
2023-03-31T14:40:26.542Z,7.44
2023-03-31T14:45:33.033Z,7.49
2023-03-31T14:50:37.579Z,7.44
2023-03-31T14:55:54.858Z,7.48
2023-03-31T15:01:03.614Z,7.69
2023-03-31T15:06:10.130Z,8.32
2023-03-31T15:11:19.329Z,8.89
2023-03-31T15:16:31.910Z,9.59
2023-03-31T15:21:39.477Z,10.03
2023-03-31T15:26:47.113Z,10.38
2023-03-31T15:31:51.423Z,11.06
2023-03-31T15:36:58.301Z,11.10
2023-03-31T15:42:04.226Z,10.61
2023-03-31T15:47:14.527Z,10.35
2023-03-31T15:52:27.481Z,10.28
2023-03-31T15:57:36.444Z,10.10
2023-03-31T16:02:44.251Z,10.18
2023-03-31T16:07:50.061Z,10.15
2023-03-31T16:12:58.339Z,10.07
2023-03-31T16:18:06.285Z,10.14
2023-03-31T16:23:19.671Z,10.19
2023-03-31T16:28:26.530Z,10.26
2023-03-31T16:33:31.573Z,11.46
2023-03-31T16:38:36.906Z,12.36
2023-03-31T16:43:40.605Z,13.38
2023-03-31T16:48:44.260Z,12.95
2023-03-31T16:53:50.073Z,12.39
2023-03-31T16:58:53.730Z,12.21
2023-03-31T17:03:58.166Z,12.02
2023-03-31T17:09:03.511Z,11.89
2023-03-31T17:14:07.147Z,11.92
2023-03-31T17:19:10.765Z,11.93
2023-03-31T17:24:16.058Z,11.81
2023-03-31T17:29:19.789Z,11.97
2023-03-31T17:34:23.595Z,12.18
2023-03-31T17:39:29.018Z,12.55
2023-03-31T17:44:32.727Z,13.67
2023-03-31T17:49:36.404Z,13.06
2023-03-31T17:54:41.748Z,12.77
2023-03-31T17:59:45.423Z,12.68
2023-03-31T18:04:49.125Z,12.87
2023-03-31T18:09:54.530Z,12.95
2023-03-31T18:14:58.182Z,13.06
2023-03-31T18:20:01.851Z,13.27
2023-03-31T18:25:08.246Z,13.37
2023-03-31T18:30:13.053Z,13.44
2023-03-31T18:35:16.934Z,13.48
2023-03-31T18:40:22.288Z,13.67
2023-03-31T18:45:25.993Z,14.08
2023-03-31T18:50:29.636Z,13.87
2023-03-31T18:55:34.926Z,13.87
2023-03-31T19:00:38.654Z,13.58
2023-03-31T19:05:42.842Z,13.52
2023-03-31T19:10:48.140Z,13.53
2023-03-31T19:15:51.802Z,13.55
2023-03-31T19:20:55.475Z,13.48
2023-03-31T19:26:00.812Z,13.36
2023-03-31T19:31:05.821Z,13.87
2023-03-31T19:36:10.075Z,13.74
2023-03-31T19:41:15.382Z,13.92
2023-03-31T19:46:19.168Z,13.91
2023-03-31T19:51:22.874Z,14.17
2023-03-31T19:56:28.187Z,14.22
2023-03-31T20:01:31.916Z,14.25
2023-03-31T20:06:35.893Z,14.10
2023-03-31T20:11:41.289Z,14.04
2023-03-31T20:16:44.936Z,14.18
2023-03-31T20:21:53.308Z,14.22
2023-03-31T20:26:59.613Z,14.34
2023-03-31T20:32:03.273Z,14.27
2023-03-31T20:37:06.930Z,14.32
2023-03-31T20:42:12.218Z,14.53
2023-03-31T20:47:15.895Z,14.75
2023-03-31T20:52:19.561Z,14.85
2023-03-31T20:57:24.924Z,14.64
2023-03-31T21:02:28.620Z,14.66
2023-03-31T21:07:32.250Z,14.59
2023-03-31T21:12:38.467Z,14.70
2023-03-31T21:17:42.141Z,14.86
2023-03-31T21:22:45.836Z,15.01
2023-03-31T21:27:51.259Z,15.29
2023-03-31T21:32:54.953Z,15.32
2023-03-31T21:37:58.639Z,15.48
2023-03-31T21:43:03.943Z,15.93
2023-03-31T21:48:09.482Z,16.38
2023-03-31T21:53:13.487Z,16.53
2023-03-31T21:58:18.849Z,16.44
2023-03-31T22:03:27.775Z,16.58
2023-03-31T22:08:32.263Z,16.71
2023-03-31T22:13:37.832Z,17.42
2023-03-31T22:18:41.472Z,17.02
2023-03-31T22:23:45.358Z,17.07
2023-03-31T22:28:51.033Z,17.17
2023-03-31T22:33:54.852Z,17.26
2023-03-31T22:38:58.817Z,17.26
2023-03-31T22:44:04.246Z,17.16
2023-03-31T22:49:08.003Z,16.95
2023-03-31T22:54:14.346Z,16.99
2023-03-31T22:59:19.662Z,16.97
2023-03-31T23:04:23.544Z,17.01
2023-03-31T23:09:27.355Z,17.04
2023-03-31T23:14:32.673Z,16.98
2023-03-31T23:19:36.445Z,17.02
2023-03-31T23:24:40.292Z,16.93
2023-03-31T23:29:47.586Z,16.61
2023-03-31T23:34:51.226Z,16.48
2023-03-31T23:39:54.822Z,16.42
2023-03-31T23:45:00.180Z,16.17
2023-03-31T23:50:03.883Z,15.67
2023-03-31T23:55:07.866Z,15.47
